createdAt,value
2019-04-10T00:01:20.998Z,100131.44
2019-04-10T00:03:52.993Z,100126.55
2019-04-10T00:06:25.726Z,100129.33
2019-04-10T00:08:57.230Z,100134.29
2019-04-10T00:11:29.998Z,100130.49
2019-04-10T00:14:01.577Z,100129.27
2019-04-10T00:16:33.488Z,100136.27
2019-04-10T00:19:05.194Z,100142.20
2019-04-10T00:21:37.632Z,100139.53
2019-04-10T00:24:09.404Z,100133.17
2019-04-10T00:26:43.876Z,100133.80
2019-04-10T00:29:14.659Z,100133.41
2019-04-10T00:31:46.617Z,100128.56
2019-04-10T00:34:19.295Z,100130.67
2019-04-10T00:36:51.378Z,100129.64
2019-04-10T00:39:26.472Z,100123.64
2019-04-10T00:41:58.800Z,100123.82
2019-04-10T00:44:30.358Z,100130.04
2019-04-10T00:47:03.059Z,100130.67
2019-04-10T00:49:34.948Z,100115.42
2019-04-10T00:52:06.597Z,100125.64
2019-04-10T00:54:39.421Z,100123.11
2019-04-10T00:57:11.235Z,100121.91
2019-04-10T00:59:42.908Z,100128.62
2019-04-10T01:02:16.474Z,100118.05
2019-04-10T01:04:48.834Z,100122.27
2019-04-10T01:07:32.949Z,100123.69
2019-04-10T01:09:55.364Z,100118.27
2019-04-10T01:12:27.759Z,100119.92
2019-04-10T01:15:00.277Z,100118.19
2019-04-10T01:17:32.651Z,100121.34
2019-04-10T01:20:07.021Z,100121.55
2019-04-10T01:22:39.268Z,100120.72
2019-04-10T01:25:10.730Z,100125.73
2019-04-10T01:27:42.529Z,100127.28
2019-04-10T01:30:14.500Z,100125.28
2019-04-10T01:32:46.144Z,100126.75
2019-04-10T01:35:20.282Z,100125.42
2019-04-10T01:37:57.827Z,100127.61
2019-04-10T01:40:25.254Z,100125.69
2019-04-10T01:43:08.185Z,100121.82
2019-04-10T01:45:30.593Z,100123.16
2019-04-10T01:48:02.307Z,100126.48
2019-04-10T01:50:35.042Z,100126.97
2019-04-10T01:53:06.616Z,100130.12
2019-04-10T01:55:39.107Z,100130.39
2019-04-10T01:58:12.888Z,100127.72
2019-04-10T02:00:52.398Z,100123.02
2019-04-10T02:03:24.162Z,100128.16
2019-04-10T02:05:56.764Z,100127.93
2019-04-10T02:08:29.857Z,100131.39
2019-04-10T02:11:01.276Z,100124.89
2019-04-10T02:13:33.844Z,100124.59
2019-04-10T02:16:06.195Z,100122.03
2019-04-10T02:18:37.709Z,100125.66
2019-04-10T02:21:09.597Z,100131.36
2019-04-10T02:23:42.714Z,100132.16
2019-04-10T02:26:14.239Z,100131.63
2019-04-10T02:28:46.851Z,100133.61
2019-04-10T02:31:19.264Z,100130.90
2019-04-10T02:33:53.730Z,100131.08
2019-04-10T02:36:27.086Z,100132.94
2019-04-10T02:39:08.493Z,100125.98
2019-04-10T02:41:32.444Z,100129.62
2019-04-10T02:44:05.293Z,100133.25
2019-04-10T02:46:37.062Z,100120.53
2019-04-10T02:49:09.046Z,100123.52
2019-04-10T02:51:41.233Z,100131.14
2019-04-10T02:54:13.695Z,100130.53
2019-04-10T02:56:47.942Z,100137.03
2019-04-10T02:59:21.135Z,100132.28
2019-04-10T03:01:55.904Z,100131.16
2019-04-10T03:04:28.567Z,100136.30
2019-04-10T03:07:02.122Z,100129.63
2019-04-10T03:09:49.228Z,100134.59
2019-04-10T03:12:08.921Z,100134.54
2019-04-10T03:14:44.950Z,100134.54
2019-04-10T03:17:15.527Z,100139.19
2019-04-10T03:19:47.316Z,100134.84
2019-04-10T03:22:18.916Z,100137.86
2019-04-10T03:24:50.758Z,100125.58
2019-04-10T03:27:22.954Z,100139.39
2019-04-10T03:29:56.802Z,100141.45
2019-04-10T03:32:35.378Z,100141.31
2019-04-10T03:35:21.025Z,100140.82
2019-04-10T03:37:52.957Z,100148.51
2019-04-10T03:40:24.708Z,100154.34
2019-04-10T03:42:57.212Z,100151.38
2019-04-10T03:45:28.882Z,100149.65
2019-04-10T03:48:16.635Z,100146.08
2019-04-10T03:50:48.594Z,100149.02
2019-04-10T03:53:27.807Z,100145.96
2019-04-10T03:56:01.106Z,100149.69
2019-04-10T03:58:33.903Z,100137.06
2019-04-10T04:01:06.839Z,100132.95
2019-04-10T04:03:38.776Z,100126.96
2019-04-10T04:06:13.373Z,100128.78
2019-04-10T04:08:46.618Z,100129.20
2019-04-10T04:11:19.745Z,100137.42
2019-04-10T04:13:52.136Z,100139.10
2019-04-10T04:16:24.745Z,100132.12
2019-04-10T04:18:56.315Z,100142.83
2019-04-10T04:21:27.935Z,100125.80
2019-04-10T04:23:59.503Z,100147.25
2019-04-10T04:26:35.008Z,100153.61
2019-04-10T04:29:07.622Z,100152.69
2019-04-10T04:31:40.035Z,100158.38
2019-04-10T04:34:12.723Z,100162.76
2019-04-10T04:36:45.103Z,100173.98
2019-04-10T04:39:23.187Z,100171.38
2019-04-10T04:41:50.299Z,100174.44
2019-04-10T04:44:22.215Z,100181.34
2019-04-10T04:46:53.814Z,100182.20
2019-04-10T04:49:26.353Z,100183.05
2019-04-10T04:51:58.253Z,100181.23
2019-04-10T04:54:29.658Z,100183.06
2019-04-10T04:57:01.326Z,100176.04
2019-04-10T04:59:34.619Z,100175.25
2019-04-10T05:02:06.560Z,100172.41
2019-04-10T05:04:37.990Z,100169.23
2019-04-10T05:07:10.396Z,100174.58
2019-04-10T05:09:42.339Z,100162.55
2019-04-10T05:12:13.991Z,100167.07
2019-04-10T05:14:46.194Z,100161.89
2019-04-10T05:17:18.589Z,100167.05
2019-04-10T05:19:50.453Z,100167.39
2019-04-10T05:22:22.335Z,100169.05
2019-04-10T05:24:54.413Z,100167.72
2019-04-10T05:27:26.638Z,100173.39
2019-04-10T05:29:58.209Z,100173.70
2019-04-10T05:32:32.948Z,100167.66
2019-04-10T05:35:08.183Z,100170.80
2019-04-10T05:37:40.113Z,100177.96
2019-04-10T05:40:12.262Z,100171.55
2019-04-10T05:42:47.091Z,100168.03
2019-04-10T05:45:18.630Z,100169.52
2019-04-10T05:47:51.034Z,100178.98
2019-04-10T05:50:24.255Z,100173.13
2019-04-10T05:52:56.008Z,100181.12
2019-04-10T05:55:28.884Z,100179.50
2019-04-10T05:58:01.673Z,100171.63
2019-04-10T06:00:34.588Z,100164.27
2019-04-10T06:03:06.347Z,100169.26
2019-04-10T06:05:38.331Z,100175.33
2019-04-10T06:08:11.954Z,100172.95
2019-04-10T06:10:47.827Z,100173.33
2019-04-10T06:13:27.588Z,100180.72
2019-04-10T06:15:59.935Z,100183.28
2019-04-10T06:18:33.263Z,100173.58
2019-04-10T06:21:05.178Z,100169.56
2019-04-10T06:23:37.747Z,100163.85
2019-04-10T06:26:12.596Z,100154.34
2019-04-10T06:28:44.838Z,100160.08
2019-04-10T06:31:16.637Z,100152.83
2019-04-10T06:33:48.562Z,100160.69
2019-04-10T06:36:20.080Z,100154.05
2019-04-10T06:38:53.012Z,100158.14
2019-04-10T06:41:24.806Z,100158.73
2019-04-10T06:43:57.217Z,100163.61
2019-04-10T06:46:30.738Z,100162.86
2019-04-10T06:49:05.638Z,100167.34
2019-04-10T06:51:40.977Z,100163.38
2019-04-10T06:54:17.374Z,100167.03
2019-04-10T06:56:50.318Z,100173.69
2019-04-10T06:59:23.281Z,100189.97
2019-04-10T07:02:16.640Z,100185.35
2019-04-10T07:04:45.969Z,100182.72
2019-04-10T07:07:15.881Z,100141.39
2019-04-10T07:09:47.970Z,100180.52
2019-04-10T07:12:23.827Z,100174.48
2019-04-10T07:14:58.055Z,100181.66
2019-04-10T07:17:27.803Z,100177.58
2019-04-10T07:19:59.780Z,100177.58
2019-04-10T07:22:31.508Z,100176.91
2019-04-10T07:25:03.405Z,100176.86
2019-04-10T07:27:39.795Z,100178.89
2019-04-10T07:30:11.891Z,100178.00
2019-04-10T07:32:47.251Z,100173.55
2019-04-10T07:35:21.489Z,100167.73
2019-04-10T07:37:58.012Z,100156.59
2019-04-10T07:40:34.960Z,100155.84
2019-04-10T07:43:06.253Z,100153.66
2019-04-10T07:45:39.260Z,100140.52
2019-04-10T07:48:12.857Z,100135.06
2019-04-10T07:50:46.961Z,100137.20
2019-04-10T07:53:19.022Z,100142.34
2019-04-10T07:56:02.321Z,100131.05
2019-04-10T07:58:24.492Z,100128.52
2019-04-10T08:00:56.726Z,100129.03
2019-04-10T08:03:31.121Z,100139.81
2019-04-10T08:06:02.817Z,100143.56
2019-04-10T08:08:34.828Z,100149.43
2019-04-10T08:11:07.147Z,100139.63
2019-04-10T08:13:40.742Z,100139.50
2019-04-10T08:16:12.380Z,100132.47
2019-04-10T08:18:44.075Z,100134.64
2019-04-10T08:21:17.755Z,100132.91
2019-04-10T08:23:53.118Z,100135.23
2019-04-10T08:26:25.043Z,100129.66
2019-04-10T08:28:57.211Z,100125.66
2019-04-10T08:31:30.870Z,100127.95
2019-04-10T08:34:03.609Z,100125.06
2019-04-10T08:36:37.432Z,100117.50
2019-04-10T08:39:09.308Z,100119.84
2019-04-10T08:41:41.600Z,100127.78
2019-04-10T08:44:14.086Z,100121.58
2019-04-10T08:46:46.259Z,100127.34
2019-04-10T08:49:18.406Z,100125.88
2019-04-10T08:51:50.311Z,100121.79
2019-04-10T08:54:21.971Z,100121.39
2019-04-10T08:56:54.745Z,100114.91
2019-04-10T08:59:27.921Z,100093.67
2019-04-10T09:02:04.082Z,100113.36
2019-04-10T09:04:41.302Z,100107.95
2019-04-10T09:07:22.243Z,100102.13
2019-04-10T09:09:54.153Z,100105.75
2019-04-10T09:12:30.178Z,100095.09
2019-04-10T09:15:02.082Z,100100.22
2019-04-10T09:17:33.570Z,100102.56
2019-04-10T09:20:08.787Z,100099.86
2019-04-10T09:23:04.550Z,100095.23
2019-04-10T09:25:16.115Z,100093.59
2019-04-10T09:27:47.995Z,100090.88
2019-04-10T09:30:20.480Z,100086.03
2019-04-10T09:32:52.766Z,100079.41
2019-04-10T09:35:24.648Z,100091.09
2019-04-10T09:37:58.686Z,100082.32
2019-04-10T09:40:30.454Z,100092.08
2019-04-10T09:43:05.013Z,100085.88
2019-04-10T09:45:37.769Z,100083.14
2019-04-10T09:48:12.800Z,100084.91
2019-04-10T09:50:46.399Z,100090.67
2019-04-10T09:53:19.092Z,100079.99
2019-04-10T09:55:50.670Z,100083.12
2019-04-10T09:58:22.220Z,100074.80
2019-04-10T10:00:54.450Z,100080.66
2019-04-10T10:03:26.325Z,100078.31
2019-04-10T10:06:00.331Z,100080.36
2019-04-10T10:08:34.026Z,100075.44
2019-04-10T10:11:06.195Z,100082.05
2019-04-10T10:13:38.082Z,100081.40
2019-04-10T10:16:10.519Z,100078.58
2019-04-10T10:18:43.675Z,100078.38
2019-04-10T10:21:16.513Z,100075.33
2019-04-10T10:23:48.007Z,100082.39
2019-04-10T10:26:19.732Z,100077.97
2019-04-10T10:28:52.396Z,100080.47
2019-04-10T10:31:24.261Z,100086.05
2019-04-10T10:33:56.554Z,100083.34
2019-04-10T10:36:39.325Z,100081.67
2019-04-10T10:39:11.949Z,100075.97
2019-04-10T10:41:44.771Z,100082.02
2019-04-10T10:44:17.418Z,100082.02
2019-04-10T10:46:49.548Z,100083.34
2019-04-10T10:49:28.864Z,100078.70
2019-04-10T10:52:03.439Z,100071.25
2019-04-10T10:54:41.087Z,100072.42
2019-04-10T10:57:13.193Z,100078.03
2019-04-10T10:59:46.118Z,100067.79
2019-04-10T11:02:17.610Z,100068.41
2019-04-10T11:04:49.296Z,100068.77
2019-04-10T11:07:22.997Z,100067.89
2019-04-10T11:09:55.013Z,100075.10
2019-04-10T11:12:28.075Z,100072.31
2019-04-10T11:14:59.857Z,100073.93
2019-04-10T11:17:34.154Z,100067.48
2019-04-10T11:20:10.384Z,100069.00
2019-04-10T11:22:42.518Z,100064.50
2019-04-10T11:25:15.692Z,100066.86
2019-04-10T11:27:47.577Z,100064.22
2019-04-10T11:30:20.883Z,100060.06
2019-04-10T11:32:52.937Z,100061.59
2019-04-10T11:35:24.568Z,100058.38
2019-04-10T11:38:00.508Z,100054.98
2019-04-10T11:40:31.751Z,100044.11
2019-04-10T11:43:05.225Z,100045.91
2019-04-10T11:45:43.120Z,100043.47
2019-04-10T11:48:13.477Z,100047.69
2019-04-10T11:50:46.162Z,100035.80
2019-04-10T11:53:21.554Z,100041.80
2019-04-10T11:55:59.123Z,100042.58
2019-04-10T11:58:29.180Z,100038.14
2019-04-10T12:01:02.518Z,100028.41
2019-04-10T12:03:37.114Z,100033.31
2019-04-10T12:06:11.908Z,100032.89
2019-04-10T12:09:08.276Z,100031.44
2019-04-10T12:11:21.433Z,100030.47
2019-04-10T12:13:58.946Z,100023.10
2019-04-10T12:16:31.343Z,100028.69
2019-04-10T12:19:02.922Z,100026.80
2019-04-10T12:21:36.615Z,100020.45
2019-04-10T12:24:09.446Z,100017.52
2019-04-10T12:26:46.398Z,100015.64
2019-04-10T12:29:18.372Z,100012.95
2019-04-10T12:31:51.073Z,100017.08
2019-04-10T12:34:26.770Z,100012.78
2019-04-10T12:36:58.727Z,100005.92
2019-04-10T12:39:32.208Z,100003.20
2019-04-10T12:42:04.382Z,100008.09
2019-04-10T12:44:36.053Z,100002.80
2019-04-10T12:47:07.988Z,100010.80
2019-04-10T12:49:39.533Z,100006.84
2019-04-10T12:52:11.993Z,100003.45
2019-04-10T12:54:43.632Z,100005.78
2019-04-10T13:00:00.653Z,100004.11
2019-04-10T13:02:28.786Z,100011.48
2019-04-10T13:05:03.097Z,100016.45
2019-04-10T13:07:35.985Z,100010.48
2019-04-10T13:10:15.608Z,100007.14
2019-04-10T13:12:49.255Z,99999.14
2019-04-10T13:15:21.400Z,100001.52
2019-04-10T13:17:53.299Z,100010.44
2019-04-10T13:20:26.637Z,100008.61
2019-04-10T13:22:58.342Z,100015.02
2019-04-10T13:25:30.240Z,100005.52
2019-04-10T13:28:03.303Z,100004.39
2019-04-10T13:30:46.904Z,100005.19
2019-04-10T13:33:14.608Z,100002.92
2019-04-10T13:36:00.213Z,99996.37
2019-04-10T13:38:35.792Z,99991.04
2019-04-10T13:41:10.323Z,99999.66
2019-04-10T13:43:42.315Z,99996.92
2019-04-10T13:46:13.869Z,99996.25
2019-04-10T13:48:47.239Z,99993.91
2019-04-10T13:51:19.307Z,99998.05
2019-04-10T13:53:52.239Z,100002.66
2019-04-10T13:56:23.957Z,100005.70
2019-04-10T13:58:56.549Z,99997.58
2019-04-10T14:01:33.538Z,100003.30
2019-04-10T14:04:07.085Z,100005.65
2019-04-10T14:06:39.678Z,100010.17
2019-04-10T14:09:31.096Z,100000.21
2019-04-10T14:11:53.886Z,100010.48
2019-04-10T14:14:26.736Z,100013.70
2019-04-10T14:16:59.401Z,100018.83
2019-04-10T14:19:31.904Z,100052.10
2019-04-10T14:22:03.415Z,100066.77
2019-04-10T14:24:42.860Z,100087.52
2019-04-10T14:27:21.119Z,100045.92
2019-04-10T14:29:53.046Z,100023.16
2019-04-10T14:32:29.327Z,100001.69
2019-04-10T14:35:05.185Z,100003.82
2019-04-10T14:37:37.899Z,99990.54
2019-04-10T14:40:11.666Z,99992.87
2019-04-10T14:42:44.555Z,100006.36
2019-04-10T14:45:17.211Z,100003.52
2019-04-10T14:47:49.808Z,100012.69
2019-04-10T14:50:21.980Z,100025.50
2019-04-10T14:52:53.840Z,100036.21
2019-04-10T14:55:27.220Z,100048.98
2019-04-10T14:58:01.283Z,100047.50
2019-04-10T15:00:39.074Z,100048.45
2019-04-10T15:03:11.925Z,100038.16
2019-04-10T15:05:50.212Z,100047.75
2019-04-10T15:08:19.692Z,100055.44
2019-04-10T15:10:55.933Z,100064.92
2019-04-10T15:13:30.342Z,100065.08
2019-04-10T15:16:03.361Z,100057.57
2019-04-10T15:18:35.121Z,100072.16
2019-04-10T15:21:07.017Z,100068.91
2019-04-10T15:23:39.937Z,100067.05
2019-04-10T15:26:11.545Z,100078.69
2019-04-10T15:28:43.630Z,100087.20
2019-04-10T15:31:19.527Z,100091.14
2019-04-10T15:33:51.843Z,100100.81
2019-04-10T15:36:25.032Z,100095.00
2019-04-10T15:38:56.817Z,100083.89
2019-04-10T15:41:29.207Z,100058.24
2019-04-10T15:44:05.945Z,100087.31
2019-04-10T15:46:39.372Z,100095.44
2019-04-10T15:49:11.150Z,100096.23
2019-04-10T15:51:43.358Z,100092.13
2019-04-10T15:54:15.961Z,100094.61
2019-04-10T15:56:47.698Z,100100.19
2019-04-10T15:59:19.908Z,100101.42
2019-04-10T16:01:51.711Z,100103.30
2019-04-10T16:04:23.525Z,100108.25
2019-04-10T16:06:55.979Z,100111.39
2019-04-10T16:09:27.726Z,100119.01
2019-04-10T16:12:14.250Z,100133.08
2019-04-10T16:14:48.720Z,100149.30
2019-04-10T16:17:23.825Z,100157.13
2019-04-10T16:20:13.342Z,100162.87
2019-04-10T16:22:57.007Z,100160.08
2019-04-10T16:25:29.975Z,100159.34
2019-04-10T16:28:04.094Z,100157.28
2019-04-10T16:30:36.947Z,100161.86
2019-04-10T16:33:09.057Z,100157.99
2019-04-10T16:35:40.717Z,100155.61
2019-04-10T16:38:16.374Z,100155.00
2019-04-10T16:40:56.230Z,100158.64
2019-04-10T16:43:28.495Z,100155.42
2019-04-10T16:46:02.866Z,100149.47
2019-04-10T16:48:35.732Z,100151.05
2019-04-10T16:51:07.999Z,100141.27
2019-04-10T16:53:39.796Z,100141.59
2019-04-10T16:56:12.273Z,100143.37
2019-04-10T16:58:44.477Z,100140.98
2019-04-10T17:01:16.081Z,100145.08
2019-04-10T17:03:52.275Z,100140.50
2019-04-10T17:06:26.163Z,100145.48
2019-04-10T17:08:58.523Z,100147.51
2019-04-10T17:11:51.436Z,100147.80
2019-04-10T17:14:24.431Z,100150.59
2019-04-10T17:16:57.905Z,100149.52
2019-04-10T17:19:30.812Z,100154.67
2019-04-10T17:22:14.363Z,100141.34
2019-04-10T17:24:54.381Z,100148.95
2019-04-10T17:27:27.718Z,100151.63
2019-04-10T17:29:59.270Z,100154.25
2019-04-10T17:32:33.578Z,100153.53
2019-04-10T17:35:09.520Z,100150.54
2019-04-10T17:37:42.196Z,100152.66
2019-04-10T17:40:27.499Z,100153.59
2019-04-10T17:42:48.718Z,100158.38
2019-04-10T17:45:20.612Z,100163.36
2019-04-10T17:47:54.618Z,100169.45
2019-04-10T17:50:25.853Z,100165.29
2019-04-10T17:52:58.866Z,100160.81
2019-04-10T17:55:31.539Z,100163.30
2019-04-10T17:58:07.412Z,100160.54
2019-04-10T18:00:45.430Z,100159.47
2019-04-10T18:03:18.634Z,100160.77
2019-04-10T18:05:50.916Z,100163.25
2019-04-10T18:08:26.388Z,100167.50
2019-04-10T18:11:00.248Z,100167.77
2019-04-10T18:13:36.312Z,100175.97
2019-04-10T18:16:08.487Z,100172.50
2019-04-10T18:18:42.169Z,100180.53
2019-04-10T18:21:14.793Z,100186.69
2019-04-10T18:23:47.400Z,100181.69
2019-04-10T18:26:21.027Z,100182.08
2019-04-10T18:28:53.971Z,100192.08
2019-04-10T18:31:27.766Z,100201.83
2019-04-10T18:33:58.846Z,100197.41
2019-04-10T18:36:30.355Z,100190.61
2019-04-10T18:39:02.016Z,100201.56
2019-04-10T18:41:36.058Z,100197.94
2019-04-10T18:44:08.855Z,100201.59
2019-04-10T18:46:41.724Z,100196.53
2019-04-10T18:49:15.690Z,100191.53
2019-04-10T18:51:47.923Z,100199.05
2019-04-10T18:54:19.605Z,100196.80
2019-04-10T18:56:51.593Z,100193.16
2019-04-10T18:59:28.957Z,100199.38
2019-04-10T19:02:20.196Z,100191.06
2019-04-10T19:04:55.246Z,100197.61
2019-04-10T19:07:27.237Z,100195.45
2019-04-10T19:10:02.057Z,100193.88
2019-04-10T19:12:34.789Z,100195.66
2019-04-10T19:15:08.561Z,100192.59
2019-04-10T19:17:41.820Z,100193.23
2019-04-10T19:20:14.145Z,100203.92
2019-04-10T19:22:46.404Z,100206.86
2019-04-10T19:25:18.781Z,100203.05
2019-04-10T19:27:52.634Z,100204.22
2019-04-10T19:30:45.561Z,100203.13
2019-04-10T19:33:18.348Z,100210.36
2019-04-10T19:35:52.877Z,100206.44
2019-04-10T19:38:25.825Z,100212.45
2019-04-10T19:40:58.390Z,100214.52
2019-04-10T19:43:31.600Z,100216.41
2019-04-10T19:46:04.154Z,100214.59
2019-04-10T19:48:35.832Z,100216.65
2019-04-10T19:51:08.021Z,100213.95
2019-04-10T19:53:39.769Z,100217.27
2019-04-10T19:56:12.688Z,100217.02
2019-04-10T19:58:44.619Z,100221.06
2019-04-10T20:01:17.058Z,100221.30
2019-04-10T20:03:50.322Z,100233.53
2019-04-10T20:06:23.777Z,100240.14
2019-04-10T20:08:57.868Z,100239.77
2019-04-10T20:11:37.750Z,100247.20
2019-04-10T20:14:06.328Z,100235.36
2019-04-10T20:16:40.307Z,100240.23
2019-04-10T20:19:33.004Z,100253.05
2019-04-10T20:22:08.487Z,100248.51
2019-04-10T20:24:40.949Z,100246.59
2019-04-10T20:27:12.655Z,100249.98
2019-04-10T20:29:45.219Z,100249.55
2019-04-10T20:32:17.900Z,100247.00
2019-04-10T20:34:49.685Z,100246.10
2019-04-10T20:37:23.191Z,100248.88
2019-04-10T20:39:57.842Z,100240.96
2019-04-10T20:42:30.371Z,100239.17
2019-04-10T20:45:02.426Z,100238.65
2019-04-10T20:47:41.372Z,100239.22
2019-04-10T20:50:13.524Z,100238.92
2019-04-10T20:52:47.308Z,100237.28
2019-04-10T20:55:19.588Z,100240.81
2019-04-10T20:57:52.456Z,100248.60
2019-04-10T21:00:34.583Z,100246.89
2019-04-10T21:03:07.083Z,100252.00
2019-04-10T21:05:40.105Z,100245.11
2019-04-10T21:08:11.773Z,100241.78
2019-04-10T21:10:43.705Z,100247.36
2019-04-10T21:13:15.528Z,100244.61
2019-04-10T21:15:48.476Z,100252.06
2019-04-10T21:18:21.215Z,100255.08
2019-04-10T21:20:57.585Z,100248.88
2019-04-10T21:23:31.363Z,100260.33
2019-04-10T21:26:03.971Z,100261.89
2019-04-10T21:28:37.146Z,100270.60
2019-04-10T21:31:28.713Z,100261.97
2019-04-10T21:34:18.113Z,100267.58
2019-04-10T21:36:51.228Z,100263.38
2019-04-10T21:39:22.799Z,100267.27
2019-04-10T21:41:55.672Z,100269.95
2019-04-10T21:44:27.533Z,100268.70
2019-04-10T21:46:59.596Z,100267.25
2019-04-10T21:49:32.339Z,100270.52
2019-04-10T21:52:04.069Z,100276.92
2019-04-10T21:54:47.112Z,100278.27
2019-04-10T21:57:10.730Z,100283.64
2019-04-10T21:59:43.185Z,100288.84
2019-04-10T22:02:15.341Z,100298.55
2019-04-10T22:04:47.684Z,100296.42
2019-04-10T22:07:28.122Z,100290.95
2019-04-10T22:10:19.745Z,100282.61
2019-04-10T22:12:52.678Z,100290.61
2019-04-10T22:15:35.278Z,100292.39
2019-04-10T22:18:21.762Z,100296.78
2019-04-10T22:20:54.169Z,100301.87
2019-04-10T22:23:26.556Z,100296.69
2019-04-10T22:26:00.018Z,100306.30
2019-04-10T22:28:32.895Z,100300.28
2019-04-10T22:31:04.938Z,100300.28
2019-04-10T22:33:36.449Z,100298.94
2019-04-10T22:36:08.712Z,100295.43
2019-04-10T22:38:43.997Z,100303.69
2019-04-10T22:41:25.169Z,100306.37
2019-04-10T22:43:52.822Z,100309.06
2019-04-10T22:46:24.378Z,100307.70
2019-04-10T22:48:56.325Z,100301.22
2019-04-10T22:51:29.037Z,100295.06
2019-04-10T22:54:04.072Z,100300.45
2019-04-10T22:56:37.805Z,100316.06
2019-04-10T22:59:10.154Z,100308.23
2019-04-10T23:01:41.832Z,100307.23
2019-04-10T23:04:14.210Z,100301.56
2019-04-10T23:06:47.223Z,100306.80
2019-04-10T23:09:20.206Z,100310.48
2019-04-10T23:11:52.069Z,100311.03
2019-04-10T23:14:24.758Z,100310.53
2019-04-10T23:16:56.802Z,100315.34
2019-04-10T23:19:28.638Z,100316.88
2019-04-10T23:22:00.943Z,100313.36
2019-04-10T23:24:33.817Z,100313.70
2019-04-10T23:27:07.490Z,100318.42
2019-04-10T23:29:40.120Z,100317.39
2019-04-10T23:32:13.271Z,100312.22
2019-04-10T23:34:45.865Z,100319.43
2019-04-10T23:37:18.500Z,100313.57
2019-04-10T23:39:51.103Z,100316.95
2019-04-10T23:42:23.280Z,100312.92
2019-04-10T23:44:55.386Z,100310.08
2019-04-10T23:47:27.025Z,100310.75
2019-04-10T23:49:59.691Z,100311.40
2019-04-10T23:52:31.845Z,100309.41
2019-04-10T23:55:03.946Z,100309.06
2019-04-10T23:57:35.757Z,100304.39
